Academy, South Dakota
Current Conditions -  °F | °C
As of 6:15 PM on Monday 24 Nov 2014 (Local Time) from K9V9 Reporting Station
Clear Clear  
Wind Chill: 11°   Ceiling: Unl
Heat Index: 24°   Visibility: 10mi
Dew Point:   Wind: 15mph
Humidity: 48%   Direction: 320°NW
Pressure: 30.03"   Gusts: NA
Location:  43.4255°N, 98.9806°W
Report Text: K9V9 250015Z AUTO 32013KT 10SM CLR M04/M14 A3003 RMK AO2 T10451140
Loading
Personal Weather Stations






























Interactive Weather Map New forecast layout! Learn more

10-Day Weather Forecast

Advertisements
Track Severe Weather on mobile